Rona II — MPKR2 — position and weather

sailwx.info

Track history (hours):
 
Tides and Currents Weather Stations Pressure Air Temp Water Temp Dewpoint Dewpoint Depression Visibility Wind Speed Wind Dir Waves Ship Positions

Rona II

Last reported at 2014-Jul-21 12:33 UTC. Time now 2014-Jul-24 04:27 UTC.
Position N 59°08' E 005°25'.

Length 22 m.

Type: Sailing vessel. MMSI: 232714000.

Date/timePositionNaut miles runAvg speedWind from/ knotsBaromVisibWave heightAir tempDewpointWater temp
2014-Jul-21 12:33N 59°08' E 005°25'5 5.4
2014-Jul-21 11:32N 59°05' E 005°32'5 4.9
2014-Jul-21 10:32N 59°01' E 005°39'4 4.1
2014-Jul-21 09:33N 59°02' E 005°47'6 6.2
2014-Jul-21 08:33N 58°58' E 005°57'1 0.1
2014-Jul-20 14:31N 58°57' E 005°59'5 5.7
2014-Jul-20 13:33N 59°00' E 005°50'4 4.3
2014-Jul-20 12:33N 58°60' E 005°42'2 1.4
2014-Jul-20 11:28N 58°58' E 005°44'0 0.0
2014-Jul-20 10:31N 58°58' E 005°44'0 0.0
2014-Jul-20 09:31N 58°58' E 005°44'0 0.0
2014-Jul-20 08:28N 58°58' E 005°44'0 0.0
2014-Jul-20 07:28N 58°58' E 005°44'0 0.0
2014-Jul-20 06:28N 58°58' E 005°44'0 0.0
2014-Jul-20 05:28N 58°58' E 005°44'0 0.0
2014-Jul-20 04:31N 58°58' E 005°44'0 0.0
2014-Jul-20 03:31N 58°58' E 005°44'0 0.0
2014-Jul-20 02:31N 58°58' E 005°44'0 0.0
2014-Jul-20 01:31N 58°58' E 005°44'0 0.0
2014-Jul-20 00:31N 58°58' E 005°44'0 0.0
2014-Jul-19 23:31N 58°58' E 005°44'0 0.0
2014-Jul-19 22:28N 58°58' E 005°44'0 0.0
2014-Jul-19 21:28N 58°58' E 005°44'0 0.0
2014-Jul-19 20:28N 58°58' E 005°44'0 0.0
2014-Jul-19 19:28N 58°58' E 005°44'0 0.0
2014-Jul-19 18:31N 58°58' E 005°44'0 0.0
2014-Jul-19 17:28N 58°58' E 005°44'0 0.0
2014-Jul-19 16:22N 58°58' E 005°44'0 0.0
2014-Jul-19 15:28N 58°58' E 005°44'0 0.0
2014-Jul-19 14:31N 58°58' E 005°44'0 0.0
2014-Jul-19 13:31N 58°58' E 005°44'0 0.0
2014-Jul-19 12:32N 58°58' E 005°44'0 0.0
2014-Jul-19 11:29N 58°58' E 005°44'0 0.0
2014-Jul-19 10:32N 58°58' E 005°44'0 0.0
2014-Jul-19 09:32N 58°58' E 005°44'0 0.0
2014-Jul-19 08:32N 58°58' E 005°44'0 0.0
2014-Jul-19 07:32N 58°58' E 005°44'1 0.7
2014-Jul-19 06:33N 58°59' E 005°43'6 5.1
2014-Jul-19 05:26N 59°03' E 005°35'5 5.3
2014-Jul-19 04:33N 58°60' E 005°28'5 5.1
2014-Jul-19 03:32N 58°55' E 005°24'5 5.4
2014-Jul-19 02:32N 58°50' E 005°24'40 3.0
2014-Jul-18 13:19N 58°16' E 006°06'4 4.9
2014-Jul-18 12:33N 58°18' E 006°13'76 2.4
2014-Jul-17 05:19N 58°17' E 008°38'78 2.5
2014-Jul-15 22:13N 59°02' E 010°40'1 1.9
2014-Jul-15 21:33N 59°03' E 010°41'2 2.0
2014-Jul-15 20:33N 59°02' E 010°45'  
2014-Jul-11 19:30N 59°13' E 010°55'4 4.7
2014-Jul-11 18:33N 59°09' E 010°51'6 6.4
2014-Jul-11 17:33N 59°05' E 010°41'  
Track history (hours):
 
Tides and Currents Weather Stations Pressure Air Temp Water Temp Dewpoint Dewpoint Depression Visibility Wind Speed Wind Dir Waves Ship Positions

Rona II

Last reported at 2014-Jul-21 12:33 UTC. Time now 2014-Jul-24 04:27 UTC.
Position N 59°08' E 005°25'.

Length 22 m.

Type: Sailing vessel. MMSI: 232714000.

Date/timePositionNaut miles runAvg speedWind from/ knotsBaromVisibWave heightAir tempDewpointWater temp
2014-Jul-21 12:33N 59°08' E 005°25'5 5.4
2014-Jul-21 11:32N 59°05' E 005°32'5 4.9
2014-Jul-21 10:32N 59°01' E 005°39'4 4.1
2014-Jul-21 09:33N 59°02' E 005°47'6 6.2
2014-Jul-21 08:33N 58°58' E 005°57'1 0.1
2014-Jul-20 14:31N 58°57' E 005°59'5 5.7
2014-Jul-20 13:33N 59°00' E 005°50'4 4.3
2014-Jul-20 12:33N 58°60' E 005°42'2 1.4
2014-Jul-20 11:28N 58°58' E 005°44'0 0.0
2014-Jul-20 10:31N 58°58' E 005°44'0 0.0
2014-Jul-20 09:31N 58°58' E 005°44'0 0.0
2014-Jul-20 08:28N 58°58' E 005°44'0 0.0
2014-Jul-20 07:28N 58°58' E 005°44'0 0.0
2014-Jul-20 06:28N 58°58' E 005°44'0 0.0
2014-Jul-20 05:28N 58°58' E 005°44'0 0.0
2014-Jul-20 04:31N 58°58' E 005°44'0 0.0
2014-Jul-20 03:31N 58°58' E 005°44'0 0.0
2014-Jul-20 02:31N 58°58' E 005°44'0 0.0
2014-Jul-20 01:31N 58°58' E 005°44'0 0.0
2014-Jul-20 00:31N 58°58' E 005°44'0 0.0
2014-Jul-19 23:31N 58°58' E 005°44'0 0.0
2014-Jul-19 22:28N 58°58' E 005°44'0 0.0
2014-Jul-19 21:28N 58°58' E 005°44'0 0.0
2014-Jul-19 20:28N 58°58' E 005°44'0 0.0
2014-Jul-19 19:28N 58°58' E 005°44'0 0.0
2014-Jul-19 18:31N 58°58' E 005°44'0 0.0
2014-Jul-19 17:28N 58°58' E 005°44'0 0.0
2014-Jul-19 16:22N 58°58' E 005°44'0 0.0
2014-Jul-19 15:28N 58°58' E 005°44'0 0.0
2014-Jul-19 14:31N 58°58' E 005°44'0 0.0
2014-Jul-19 13:31N 58°58' E 005°44'0 0.0
2014-Jul-19 12:32N 58°58' E 005°44'0 0.0
2014-Jul-19 11:29N 58°58' E 005°44'0 0.0
2014-Jul-19 10:32N 58°58' E 005°44'0 0.0
2014-Jul-19 09:32N 58°58' E 005°44'0 0.0
2014-Jul-19 08:32N 58°58' E 005°44'0 0.0
2014-Jul-19 07:32N 58°58' E 005°44'1 0.7
2014-Jul-19 06:33N 58°59' E 005°43'6 5.1
2014-Jul-19 05:26N 59°03' E 005°35'5 5.3
2014-Jul-19 04:33N 58°60' E 005°28'5 5.1
2014-Jul-19 03:32N 58°55' E 005°24'5 5.4
2014-Jul-19 02:32N 58°50' E 005°24'40 3.0
2014-Jul-18 13:19N 58°16' E 006°06'4 4.9
2014-Jul-18 12:33N 58°18' E 006°13'76 2.4
2014-Jul-17 05:19N 58°17' E 008°38'78 2.5
2014-Jul-15 22:13N 59°02' E 010°40'1 1.9
2014-Jul-15 21:33N 59°03' E 010°41'2 2.0
2014-Jul-15 20:33N 59°02' E 010°45'  
2014-Jul-11 19:30N 59°13' E 010°55'4 4.7
2014-Jul-11 18:33N 59°09' E 010°51'6 6.4
2014-Jul-11 17:33N 59°05' E 010°41'  

Dump ship's entire track history